Matt Devall — WCQ7740 — position and weather

sailwx.info

Track history (hours):
 
Tides and Currents Weather Stations Pressure Air Temp Water Temp Dewpoint Dewpoint Depression Visibility Wind Speed Wind Dir Waves Ship Positions

Matt Devall

Owner: MATT DEVALL INC, HACKBERRY, LA. More information available from US FCC via Universal Licensing System and Coast Guard Vessel Documentation Center.

Last reported at 2018-Feb-19 09:01 UTC. Time now 2018-Feb-19 14:21 UTC.
Position N 29°47' W 095°04'.

Length 17 m; draft 2.6 m.

MMSI: 366974120.

Date/timePositionNaut miles runAvg speedWind from/ knotsBaromVisibWave heightAir tempDewpointWater temp
2018-Feb-19 09:01N 29°47' W 095°04'0 0.0
2018-Feb-19 08:43N 29°47' W 095°04'0 0.0
2018-Feb-19 08:29N 29°47' W 095°04'0 0.0
2018-Feb-19 07:21N 29°47' W 095°04'2 0.2
2018-Feb-18 20:04N 29°47' W 095°06'4 0.2
2018-Feb-18 00:04N 29°44' W 095°03'0 5.9
2018-Feb-18 00:00N 29°44' W 095°03'2 4.9
2018-Feb-17 23:30N 29°42' W 095°01'3 5.6
2018-Feb-17 23:00N 29°40' W 094°59'3 5.9
2018-Feb-17 22:30N 29°38' W 094°58'3 6.0
2018-Feb-17 22:01N 29°35' W 094°56'3 6.0
2018-Feb-17 21:31N 29°32' W 094°54'12 0.7
2018-Feb-17 05:48N 29°25' W 094°43'0 0.0
2018-Feb-17 05:27N 29°25' W 094°43'0 0.0
2018-Feb-17 04:24N 29°25' W 094°43'0 0.0
2018-Feb-17 03:53N 29°25' W 094°43'0 0.0
2018-Feb-17 03:27N 29°25' W 094°43'0 0.0
2018-Feb-17 02:57N 29°25' W 094°43'0 0.0
2018-Feb-17 02:22N 29°25' W 094°43'0 0.0
2018-Feb-17 01:54N 29°25' W 094°43'0 0.0
2018-Feb-16 23:37N 29°25' W 094°43'0 0.0
2018-Feb-16 08:56N 29°25' W 094°43'0 0.0
2018-Feb-16 08:29N 29°25' W 094°43'0 0.0
2018-Feb-16 07:47N 29°25' W 094°43'0 0.0
2018-Feb-16 07:15N 29°25' W 094°43'0 0.0
2018-Feb-16 06:53N 29°25' W 094°43'0 0.0
2018-Feb-16 06:13N 29°25' W 094°43'0 0.0
2018-Feb-16 05:57N 29°25' W 094°43'0 0.0
2018-Feb-16 05:25N 29°25' W 094°43'0 0.0
2018-Feb-16 04:57N 29°25' W 094°43'0 0.0
2018-Feb-16 04:26N 29°25' W 094°43'0 0.0
2018-Feb-16 02:33N 29°25' W 094°43'0 0.0
2018-Feb-16 01:16N 29°25' W 094°43'0 0.0
2018-Feb-16 00:59N 29°25' W 094°43'0 0.0
2018-Feb-15 09:34N 29°25' W 094°43'0 0.0
2018-Feb-15 09:10N 29°25' W 094°43'0 0.0
2018-Feb-15 08:29N 29°25' W 094°43'0 0.0
2018-Feb-15 07:41N 29°25' W 094°43'0 0.0
2018-Feb-15 07:23N 29°25' W 094°43'0 0.0
2018-Feb-15 06:22N 29°25' W 094°43'0 0.0
2018-Feb-15 05:59N 29°25' W 094°43'0 0.0
2018-Feb-15 05:23N 29°25' W 094°43'0 0.0
2018-Feb-15 05:00N 29°25' W 094°43'0 0.0
2018-Feb-15 04:25N 29°25' W 094°43'0 0.0
2018-Feb-15 03:59N 29°25' W 094°43'0 0.0
2018-Feb-15 03:25N 29°25' W 094°43'0 0.0
2018-Feb-15 02:58N 29°25' W 094°43'0 0.0
2018-Feb-15 02:28N 29°25' W 094°43'0 0.1
2018-Feb-14 23:19N 29°26' W 094°43'1 1.2
2018-Feb-14 22:23N 29°26' W 094°42'17 4.2
2018-Feb-14 18:20N 29°34' W 094°25'2 4.5
2018-Feb-14 18:00N 29°36' W 094°24'3 3.2
2018-Feb-14 16:56N 29°37' W 094°21'0 0.0
2018-Feb-14 16:30N 29°37' W 094°21'0 0.0
2018-Feb-14 15:54N 29°37' W 094°21'0 0.0
2018-Feb-14 10:41N 29°37' W 094°21'0 0.0
2018-Feb-14 10:05N 29°37' W 094°21'0 0.1
2018-Feb-14 10:00N 29°37' W 094°21'0 0.0
2018-Feb-14 09:30N 29°37' W 094°21'0 0.0
2018-Feb-14 06:25N 29°37' W 094°21'0 0.0
2018-Feb-14 06:00N 29°37' W 094°21'0 0.0
2018-Feb-14 04:14N 29°37' W 094°21'0 0.0
2018-Feb-14 04:00N 29°37' W 094°21'0 0.0
2018-Feb-14 01:39N 29°37' W 094°21'0 0.0
2018-Feb-14 01:25N 29°37' W 094°21'4 3.3
2018-Feb-14 00:11N 29°39' W 094°16'1 4.6
2018-Feb-13 23:54N 29°39' W 094°15'2 4.4
2018-Feb-13 23:30N 29°40' W 094°13'2 4.7
2018-Feb-13 23:00N 29°41' W 094°11'2 3.9
2018-Feb-13 22:30N 29°42' W 094°09'2 3.2
2018-Feb-13 22:01N 29°43' W 094°07'2 4.4
2018-Feb-13 21:30N 29°44' W 094°05'2 4.4
2018-Feb-13 21:01N 29°46' W 094°03'2 4.2
2018-Feb-13 20:30N 29°47' W 094°01'2 4.2
2018-Feb-13 20:00N 29°49' W 093°60'1 1.7
2018-Feb-13 19:31N 29°49' W 093°59'0 0.2
2018-Feb-13 19:00N 29°49' W 093°59'2 3.5
2018-Feb-13 18:31N 29°50' W 093°57'3 5.5
2018-Feb-13 18:00N 29°52' W 093°56'3 5.8
2018-Feb-13 17:31N 29°55' W 093°54'3 5.5
2018-Feb-13 17:00N 29°57' W 093°52'2 4.2
2018-Feb-13 16:30N 29°59' W 093°50'2 3.8
2018-Feb-13 16:00N 29°59' W 093°48'2 4.6
2018-Feb-13 15:30N 30°00' W 093°46'2 4.2
2018-Feb-13 14:59N 30°02' W 093°44'2 4.2
2018-Feb-13 14:30N 30°03' W 093°42'3 4.5
2018-Feb-13 13:46N 30°04' W 093°39'1 4.6
2018-Feb-13 13:27N 30°04' W 093°37'3 4.5
2018-Feb-13 12:47N 30°04' W 093°33'2 3.5
2018-Feb-13 12:09N 30°04' W 093°31'0 1.7
2018-Feb-13 12:00N 30°04' W 093°31'2 3.7
2018-Feb-13 11:26N 30°04' W 093°28'2 4.2
2018-Feb-13 11:00N 30°04' W 093°26'2 4.3
2018-Feb-13 10:30N 30°04' W 093°24'2 3.6
2018-Feb-13 10:01N 30°04' W 093°22'2 3.3
2018-Feb-13 09:30N 30°05' W 093°20'2 3.8
2018-Feb-13 08:59N 30°06' W 093°18'2 3.9
2018-Feb-13 08:30N 30°05' W 093°17'2 3.6
2018-Feb-13 07:59N 30°03' W 093°16'2 2.9
2018-Feb-13 07:28N 30°02' W 093°15'2 4.0
2018-Feb-13 07:01N 30°00' W 093°14'2 4.3
2018-Feb-13 06:30N 29°59' W 093°12'2 4.0
2018-Feb-13 06:00N 29°57' W 093°11'  
Track history (hours):
 
Tides and Currents Weather Stations Pressure Air Temp Water Temp Dewpoint Dewpoint Depression Visibility Wind Speed Wind Dir Waves Ship Positions

Matt Devall

Owner: MATT DEVALL INC, HACKBERRY, LA. More information available from US FCC via Universal Licensing System and Coast Guard Vessel Documentation Center.

Last reported at 2018-Feb-19 09:01 UTC. Time now 2018-Feb-19 14:21 UTC.
Position N 29°47' W 095°04'.

Length 17 m; draft 2.6 m.

MMSI: 366974120.

Date/timePositionNaut miles runAvg speedWind from/ knotsBaromVisibWave heightAir tempDewpointWater temp
2018-Feb-19 09:01N 29°47' W 095°04'0 0.0
2018-Feb-19 08:43N 29°47' W 095°04'0 0.0
2018-Feb-19 08:29N 29°47' W 095°04'0 0.0
2018-Feb-19 07:21N 29°47' W 095°04'2 0.2
2018-Feb-18 20:04N 29°47' W 095°06'4 0.2
2018-Feb-18 00:04N 29°44' W 095°03'0 5.9
2018-Feb-18 00:00N 29°44' W 095°03'2 4.9
2018-Feb-17 23:30N 29°42' W 095°01'3 5.6
2018-Feb-17 23:00N 29°40' W 094°59'3 5.9
2018-Feb-17 22:30N 29°38' W 094°58'3 6.0
2018-Feb-17 22:01N 29°35' W 094°56'3 6.0
2018-Feb-17 21:31N 29°32' W 094°54'12 0.7
2018-Feb-17 05:48N 29°25' W 094°43'0 0.0
2018-Feb-17 05:27N 29°25' W 094°43'0 0.0
2018-Feb-17 04:24N 29°25' W 094°43'0 0.0
2018-Feb-17 03:53N 29°25' W 094°43'0 0.0
2018-Feb-17 03:27N 29°25' W 094°43'0 0.0
2018-Feb-17 02:57N 29°25' W 094°43'0 0.0
2018-Feb-17 02:22N 29°25' W 094°43'0 0.0
2018-Feb-17 01:54N 29°25' W 094°43'0 0.0
2018-Feb-16 23:37N 29°25' W 094°43'0 0.0
2018-Feb-16 08:56N 29°25' W 094°43'0 0.0
2018-Feb-16 08:29N 29°25' W 094°43'0 0.0
2018-Feb-16 07:47N 29°25' W 094°43'0 0.0
2018-Feb-16 07:15N 29°25' W 094°43'0 0.0
2018-Feb-16 06:53N 29°25' W 094°43'0 0.0
2018-Feb-16 06:13N 29°25' W 094°43'0 0.0
2018-Feb-16 05:57N 29°25' W 094°43'0 0.0
2018-Feb-16 05:25N 29°25' W 094°43'0 0.0
2018-Feb-16 04:57N 29°25' W 094°43'0 0.0
2018-Feb-16 04:26N 29°25' W 094°43'0 0.0
2018-Feb-16 02:33N 29°25' W 094°43'0 0.0
2018-Feb-16 01:16N 29°25' W 094°43'0 0.0
2018-Feb-16 00:59N 29°25' W 094°43'0 0.0
2018-Feb-15 09:34N 29°25' W 094°43'0 0.0
2018-Feb-15 09:10N 29°25' W 094°43'0 0.0
2018-Feb-15 08:29N 29°25' W 094°43'0 0.0
2018-Feb-15 07:41N 29°25' W 094°43'0 0.0
2018-Feb-15 07:23N 29°25' W 094°43'0 0.0
2018-Feb-15 06:22N 29°25' W 094°43'0 0.0
2018-Feb-15 05:59N 29°25' W 094°43'0 0.0
2018-Feb-15 05:23N 29°25' W 094°43'0 0.0
2018-Feb-15 05:00N 29°25' W 094°43'0 0.0
2018-Feb-15 04:25N 29°25' W 094°43'0 0.0
2018-Feb-15 03:59N 29°25' W 094°43'0 0.0
2018-Feb-15 03:25N 29°25' W 094°43'0 0.0
2018-Feb-15 02:58N 29°25' W 094°43'0 0.0
2018-Feb-15 02:28N 29°25' W 094°43'0 0.1
2018-Feb-14 23:19N 29°26' W 094°43'1 1.2
2018-Feb-14 22:23N 29°26' W 094°42'17 4.2
2018-Feb-14 18:20N 29°34' W 094°25'2 4.5
2018-Feb-14 18:00N 29°36' W 094°24'3 3.2
2018-Feb-14 16:56N 29°37' W 094°21'0 0.0
2018-Feb-14 16:30N 29°37' W 094°21'0 0.0
2018-Feb-14 15:54N 29°37' W 094°21'0 0.0
2018-Feb-14 10:41N 29°37' W 094°21'0 0.0
2018-Feb-14 10:05N 29°37' W 094°21'0 0.1
2018-Feb-14 10:00N 29°37' W 094°21'0 0.0
2018-Feb-14 09:30N 29°37' W 094°21'0 0.0
2018-Feb-14 06:25N 29°37' W 094°21'0 0.0
2018-Feb-14 06:00N 29°37' W 094°21'0 0.0
2018-Feb-14 04:14N 29°37' W 094°21'0 0.0
2018-Feb-14 04:00N 29°37' W 094°21'0 0.0
2018-Feb-14 01:39N 29°37' W 094°21'0 0.0
2018-Feb-14 01:25N 29°37' W 094°21'4 3.3
2018-Feb-14 00:11N 29°39' W 094°16'1 4.6
2018-Feb-13 23:54N 29°39' W 094°15'2 4.4
2018-Feb-13 23:30N 29°40' W 094°13'2 4.7
2018-Feb-13 23:00N 29°41' W 094°11'2 3.9
2018-Feb-13 22:30N 29°42' W 094°09'2 3.2
2018-Feb-13 22:01N 29°43' W 094°07'2 4.4
2018-Feb-13 21:30N 29°44' W 094°05'2 4.4
2018-Feb-13 21:01N 29°46' W 094°03'2 4.2
2018-Feb-13 20:30N 29°47' W 094°01'2 4.2
2018-Feb-13 20:00N 29°49' W 093°60'1 1.7
2018-Feb-13 19:31N 29°49' W 093°59'0 0.2
2018-Feb-13 19:00N 29°49' W 093°59'2 3.5
2018-Feb-13 18:31N 29°50' W 093°57'3 5.5
2018-Feb-13 18:00N 29°52' W 093°56'3 5.8
2018-Feb-13 17:31N 29°55' W 093°54'3 5.5
2018-Feb-13 17:00N 29°57' W 093°52'2 4.2
2018-Feb-13 16:30N 29°59' W 093°50'2 3.8
2018-Feb-13 16:00N 29°59' W 093°48'2 4.6
2018-Feb-13 15:30N 30°00' W 093°46'2 4.2
2018-Feb-13 14:59N 30°02' W 093°44'2 4.2
2018-Feb-13 14:30N 30°03' W 093°42'3 4.5
2018-Feb-13 13:46N 30°04' W 093°39'1 4.6
2018-Feb-13 13:27N 30°04' W 093°37'3 4.5
2018-Feb-13 12:47N 30°04' W 093°33'2 3.5
2018-Feb-13 12:09N 30°04' W 093°31'0 1.7
2018-Feb-13 12:00N 30°04' W 093°31'2 3.7
2018-Feb-13 11:26N 30°04' W 093°28'2 4.2
2018-Feb-13 11:00N 30°04' W 093°26'2 4.3
2018-Feb-13 10:30N 30°04' W 093°24'2 3.6
2018-Feb-13 10:01N 30°04' W 093°22'2 3.3
2018-Feb-13 09:30N 30°05' W 093°20'2 3.8
2018-Feb-13 08:59N 30°06' W 093°18'2 3.9
2018-Feb-13 08:30N 30°05' W 093°17'2 3.6
2018-Feb-13 07:59N 30°03' W 093°16'2 2.9
2018-Feb-13 07:28N 30°02' W 093°15'2 4.0
2018-Feb-13 07:01N 30°00' W 093°14'2 4.3
2018-Feb-13 06:30N 29°59' W 093°12'2 4.0
2018-Feb-13 06:00N 29°57' W 093°11'  

Dump ship's entire track history